»·PEaware :: N206DS KAPA-KCPR

N206DS :: KAPA-KCPR

FLIGHT INFORMATION

Flight Status: Arrived
Operator: Privately registered:
United States
More flights under this callsign
Pilot: Anonymous 26047 (26047)
Aircraft: BEECH AIRCRAFT BARON
(BE58)
More flights by this aircraft type
Origin: KAPA Centennial
United States
Destination: KCPR Natrona Co Intl
United States
More flights between these airports :: More routes between these airports
Route: CYS DDY
File this flight plan on PilotEdge
Remarks:
Altitude:
(Current/Filed)
10,500ft
Speed:
(Current/Filed)
190kts
Departed: 10-Jan-20 08:22 PM
Arrived: 10-Jan-20 09:50 PM
Distance/Time
Traveled:
213nm/1:27
Distance/Time
To Go:
Arrived

Flight Plot

Page will automatically refresh every two minutes.

Flight plan parsing failed; only flown route is shown


Map Options




Map Legend


Flown Route
Filed Route
Departure Airport
Arrival Airport
Navaid (VOR, NDB)
Fix

Horizontal Profiles

Position Reports

Time Latitude Longitude Heading Altitude Ground
Speed
10-Jan-20 20:02 39.573088 -104.844824 270 5888ft 0kts
10-Jan-20 20:03 39.573088 -104.844824 270 5888ft 0kts
10-Jan-20 20:04 39.573088 -104.844824 270 5888ft 0kts
10-Jan-20 20:05 39.573088 -104.844824 270 5888ft 0kts
10-Jan-20 20:06 39.573088 -104.844824 270 5888ft 0kts
10-Jan-20 20:07 39.573088 -104.844824 270 5888ft 0kts
10-Jan-20 20:08 39.573088 -104.844824 270 5888ft 0kts
10-Jan-20 20:09 39.573088 -104.844824 270 5888ft 0kts
10-Jan-20 20:10 39.573088 -104.844824 270 5888ft 0kts
10-Jan-20 20:11 39.573088 -104.844824 270 5888ft 0kts
10-Jan-20 20:12 39.573088 -104.844824 270 5888ft 0kts
10-Jan-20 20:13 39.573066 -104.844890 228 5888ft 3kts
10-Jan-20 20:14 39.571560 -104.841177 110 5888ft 16kts
10-Jan-20 20:15 39.569741 -104.835044 111 5888ft 19kts
10-Jan-20 20:16 39.570010 -104.835946 291 5888ft 26kts
10-Jan-20 20:17 39.572757 -104.845255 290 5888ft 25kts
10-Jan-20 20:18 39.573464 -104.847883 207 5888ft 0kts
10-Jan-20 20:19 39.573464 -104.847883 207 5888ft 0kts
10-Jan-20 20:20 39.573420 -104.847909 202 5888ft 3kts
10-Jan-20 20:21 39.568186 -104.832006 111 6046ft 108kts
10-Jan-20 20:22 39.569575 -104.794801 24 6933ft 144kts
10-Jan-20 20:23 39.598932 -104.823720 292 7391ft 154kts
10-Jan-20 20:24 39.616214 -104.875922 281 7516ft 158kts
10-Jan-20 20:25 39.636788 -104.924151 307 7421ft 160kts
10-Jan-20 20:26 39.664574 -104.963096 310 7494ft 153kts
10-Jan-20 20:27 39.695132 -105.002071 311 7496ft 153kts
10-Jan-20 20:28 39.733987 -105.020207 354 7502ft 164kts
10-Jan-20 20:29 39.781986 -105.019104 358 7718ft 171kts
10-Jan-20 20:30 39.832426 -105.017637 359 7618ft 172kts
10-Jan-20 20:31 39.879463 -105.012907 4 7530ft 170kts
10-Jan-20 20:32 39.927993 -105.006809 2 7520ft 175kts
10-Jan-20 20:33 39.976798 -105.001791 2 7583ft 174kts
10-Jan-20 20:34 40.025077 -104.996314 2 7591ft 175kts
10-Jan-20 20:35 40.074183 -104.990672 2 7589ft 177kts
10-Jan-20 20:36 40.123761 -104.984949 2 7589ft 178kts
10-Jan-20 20:37 40.173717 -104.980943 357 7568ft 178kts
10-Jan-20 20:38 40.223387 -104.978721 1 7082ft 180kts
10-Jan-20 20:39 40.272691 -104.966641 8 6524ft 176kts
10-Jan-20 20:40 40.320994 -104.958784 10 6531ft 173kts
10-Jan-20 20:41 40.369252 -104.948571 8 6554ft 178kts
10-Jan-20 20:42 40.421035 -104.938034 7 6587ft 191kts
10-Jan-20 20:43 40.474808 -104.926951 7 6497ft 195kts
10-Jan-20 20:44 40.528844 -104.915771 7 6495ft 194kts
10-Jan-20 20:45 40.582365 -104.904684 7 6497ft 194kts
10-Jan-20 20:46 40.635962 -104.893555 7 6575ft 190kts
10-Jan-20 20:47 40.689402 -104.882409 7 6563ft 189kts
10-Jan-20 20:48 40.741986 -104.871497 7 6585ft 193kts
10-Jan-20 20:49 40.796538 -104.860019 5 6512ft 200kts
10-Jan-20 20:50 40.851651 -104.848510 4 6506ft 199kts
10-Jan-20 20:51 40.905331 -104.837253 3 6714ft 187kts
10-Jan-20 20:52 40.956099 -104.826656 2 7120ft 181kts
10-Jan-20 20:53 41.005612 -104.818977 343 7411ft 174kts
10-Jan-20 20:54 41.049869 -104.842510 323 7496ft 171kts
10-Jan-20 20:55 41.092084 -104.874278 323 7516ft 173kts
10-Jan-20 20:56 41.133734 -104.903944 341 7461ft 184kts
10-Jan-20 20:57 41.185909 -104.903387 354 7517ft 187kts
10-Jan-20 20:58 41.238246 -104.901571 354 7512ft 187kts
10-Jan-20 20:59 41.290336 -104.900411 354 7506ft 185kts
10-Jan-20 21:00 41.341645 -104.899663 354 7499ft 182kts
10-Jan-20 21:01 41.391412 -104.903982 325 7611ft 165kts
10-Jan-20 21:02 41.427414 -104.931882 324 8388ft 144kts
10-Jan-20 21:03 41.463620 -104.959366 325 8528ft 153kts
10-Jan-20 21:04 41.502398 -104.988366 325 8508ft 162kts
10-Jan-20 21:05 41.542125 -105.017942 325 8493ft 163kts
10-Jan-20 21:06 41.580107 -105.046217 325 8485ft 164kts
10-Jan-20 21:07 41.620342 -105.076209 325 8497ft 163kts
10-Jan-20 21:08 41.660296 -105.106053 325 8467ft 165kts
10-Jan-20 21:09 41.701140 -105.136574 324 8440ft 166kts
10-Jan-20 21:10 41.742007 -105.167186 324 8440ft 166kts
10-Jan-20 21:11 41.779702 -105.195590 328 9077ft 143kts
10-Jan-20 21:12 41.812533 -105.220208 329 9881ft 129kts
10-Jan-20 21:13 41.843725 -105.243591 330 10505ft 131kts
10-Jan-20 21:14 41.877159 -105.268719 326 10589ft 144kts
10-Jan-20 21:15 41.913342 -105.295918 324 10554ft 151kts
10-Jan-20 21:16 41.950407 -105.323865 324 10567ft 150kts
10-Jan-20 21:17 41.987330 -105.351756 324 10576ft 151kts
10-Jan-20 21:18 42.023188 -105.381789 320 10573ft 151kts
10-Jan-20 21:19 42.058649 -105.413101 323 10575ft 151kts
10-Jan-20 21:20 42.094684 -105.442464 322 10573ft 151kts
10-Jan-20 21:21 42.131286 -105.472219 322 10578ft 152kts
10-Jan-20 21:22 42.167604 -105.502095 322 10661ft 146kts
10-Jan-20 21:23 42.199863 -105.528744 323 11260ft 131kts
10-Jan-20 21:24 42.230773 -105.554287 324 11744ft 129kts
10-Jan-20 21:25 42.261363 -105.579594 326 12192ft 129kts
10-Jan-20 21:26 42.292716 -105.605421 326 12499ft 136kts
10-Jan-20 21:27 42.326392 -105.633261 327 12529ft 146kts
10-Jan-20 21:28 42.361948 -105.663139 326 12507ft 151kts
10-Jan-20 21:29 42.398229 -105.693543 326 12506ft 152kts
10-Jan-20 21:30 42.434507 -105.723794 326 12505ft 152kts
10-Jan-20 21:31 42.472211 -105.755176 326 12182ft 162kts
10-Jan-20 21:32 42.512790 -105.788728 323 11376ft 178kts
10-Jan-20 21:33 42.556415 -105.825281 321 10445ft 187kts
10-Jan-20 21:34 42.599999 -105.861700 320 10001ft 174kts
10-Jan-20 21:35 42.640238 -105.895546 319 9959ft 166kts
10-Jan-20 21:36 42.680108 -105.928469 320 9714ft 176kts
10-Jan-20 21:37 42.724121 -105.965263 320 8858ft 192kts
10-Jan-20 21:38 42.769874 -106.003488 320 7952ft 189kts
10-Jan-20 21:39 42.807467 -106.048287 308 7265ft 170kts
10-Jan-20 21:40 42.834029 -106.096842 291 7032ft 151kts
10-Jan-20 21:41 42.849859 -106.147574 284 7052ft 139kts
10-Jan-20 21:43 42.860853 -106.197807 264 7027ft 137kts
10-Jan-20 21:44 42.871406 -106.248930 276 6894ft 139kts
10-Jan-20 21:45 42.883644 -106.301669 292 6895ft 154kts
10-Jan-20 21:46 42.909430 -106.347035 307 6860ft 138kts
10-Jan-20 21:47 42.932643 -106.384759 295 6515ft 120kts
10-Jan-20 21:48 42.934886 -106.421388 221 6070ft 102kts
10-Jan-20 21:49 42.916280 -106.445207 221 5495ft 86kts
10-Jan-20 21:50 42.906119 -106.457823 157 5351ft 10kts
10-Jan-20 21:51 42.905407 -106.456951 137 5351ft 9kts

Navigation Log

Ident Type
Flight plan parsing failed, navigation log unavailable